Hatsu Envoy — VSQL9 — position and weather

sailwx.info

Track history (hours):
 
Tides and Currents Weather Stations Pressure Air Temp Water Temp Dewpoint Dewpoint Depression Visibility Wind Speed Wind Dir Waves Ship Positions

Hatsu Envoy

Last reported at 2018-Jun-15 09:57 UTC. Time now 2018-Jun-19 08:27 UTC.
Position N 38°11' W 124°05'.

Type: Ship (hazmat cat D). MMSI: 235414000.

Date/timePositionNaut miles runAvg speedWind from/ knotsBaromVisibWave heightAir tempDewpointWater temp
2018-Jun-15 09:57N 38°11' W 124°05'7 9.8
2018-Jun-15 09:16N 38°11' W 123°57'3 9.4
2018-Jun-15 09:00N 38°10' W 123°54'5 9.5
2018-Jun-15 08:30N 38°10' W 123°48'5 9.5
2018-Jun-15 08:00N 38°10' W 123°42'5 9.5
2018-Jun-15 07:30N 38°10' W 123°36'5 9.6
2018-Jun-15 07:00N 38°10' W 123°30'510.5
2018-Jun-15 06:30N 38°10' W 123°23'4 8.7
2018-Jun-15 06:00N 38°07' W 123°19'4 8.3
2018-Jun-15 05:30N 38°04' W 123°15'4 9.0
2018-Jun-15 05:00N 38°01' W 123°11'5 9.7
2018-Jun-15 04:30N 37°58' W 123°06'5 9.7
2018-Jun-15 04:00N 37°55' W 123°01'5 9.6
2018-Jun-15 03:30N 37°53' W 122°56'5 9.5
2018-Jun-15 03:00N 37°51' W 122°51'5 9.5
2018-Jun-15 02:30N 37°48' W 122°45'4 8.7
2018-Jun-15 02:01N 37°47' W 122°40'713.9
2018-Jun-15 01:30N 37°48' W 122°32'612.4
2018-Jun-15 01:01N 37°50' W 122°24'3 6.4
2018-Jun-15 00:29N 37°49' W 122°20'0 0.0
2018-Jun-14 23:57N 37°49' W 122°20'0 0.0
2018-Jun-14 23:26N 37°49' W 122°20'0 0.0
2018-Jun-14 22:59N 37°49' W 122°20'0 0.0
2018-Jun-14 22:29N 37°49' W 122°20'0 0.0
2018-Jun-14 21:56N 37°49' W 122°20'0 0.0
2018-Jun-14 21:26N 37°49' W 122°20'0 0.0
2018-Jun-14 20:57N 37°49' W 122°20'0 0.0
2018-Jun-14 20:29N 37°49' W 122°20'0 0.0
2018-Jun-14 19:59N 37°49' W 122°20'0 0.0
2018-Jun-14 19:29N 37°49' W 122°20'0 0.1
2018-Jun-14 18:56N 37°48' W 122°20'0 0.1
2018-Jun-14 18:29N 37°48' W 122°20'0 0.0
2018-Jun-14 17:59N 37°49' W 122°20'0 0.0
2018-Jun-14 17:26N 37°49' W 122°20'0 0.0
2018-Jun-14 16:56N 37°49' W 122°20'0 0.0
2018-Jun-14 16:30N 37°49' W 122°20'0 0.0
2018-Jun-14 16:00N 37°49' W 122°20'0 0.0
2018-Jun-14 15:26N 37°49' W 122°20'0 0.0
2018-Jun-14 14:59N 37°48' W 122°20'0 0.0
2018-Jun-14 14:29N 37°49' W 122°20'0 0.0
2018-Jun-14 13:59N 37°49' W 122°20'0 0.0
2018-Jun-14 13:29N 37°49' W 122°20'0 0.0
2018-Jun-14 12:59N 37°49' W 122°20'0 0.0
2018-Jun-14 12:29N 37°49' W 122°20'0 0.0
2018-Jun-14 11:59N 37°49' W 122°20'0 0.0
2018-Jun-14 11:29N 37°49' W 122°20'0 0.0
2018-Jun-14 10:59N 37°49' W 122°20'0 0.0
2018-Jun-14 10:29N 37°49' W 122°20'0 0.0
2018-Jun-14 09:59N 37°49' W 122°20'0 0.0
2018-Jun-14 09:29N 37°49' W 122°20'0 0.0
2018-Jun-14 08:59N 37°49' W 122°20'0 0.0
2018-Jun-14 08:29N 37°49' W 122°20'0 0.0
2018-Jun-14 07:59N 37°49' W 122°20'0 0.0
2018-Jun-14 07:29N 37°49' W 122°20'0 0.0
2018-Jun-14 06:59N 37°49' W 122°20'0 0.1
2018-Jun-14 06:29N 37°48' W 122°20'0 0.1
2018-Jun-14 06:00N 37°49' W 122°20'0 0.0
2018-Jun-14 05:29N 37°49' W 122°20'0 0.0
2018-Jun-14 04:59N 37°48' W 122°20'0 0.0
2018-Jun-14 04:29N 37°49' W 122°20'0 0.0
2018-Jun-14 03:59N 37°49' W 122°20'0 0.0
2018-Jun-14 03:29N 37°49' W 122°20'0 0.0
2018-Jun-14 02:59N 37°49' W 122°20'0 0.0
2018-Jun-14 02:29N 37°49' W 122°20'0 0.0
2018-Jun-14 01:59N 37°49' W 122°20'0 0.0
2018-Jun-14 01:29N 37°49' W 122°20'0 0.0
2018-Jun-14 00:56N 37°49' W 122°20'0 0.0
2018-Jun-14 00:29N 37°49' W 122°20'0 0.0
2018-Jun-13 23:57N 37°49' W 122°20'0 0.0
2018-Jun-13 23:26N 37°49' W 122°20'1 1.3
2018-Jun-13 23:00N 37°49' W 122°20'0 0.5
2018-Jun-13 22:31N 37°49' W 122°19'3 5.4
2018-Jun-13 22:00N 37°48' W 122°23'612.2
2018-Jun-13 21:30N 37°48' W 122°30'714.1
2018-Jun-13 21:00N 37°46' W 122°39'4 8.5
2018-Jun-13 20:30N 37°41' W 122°40'3 5.3
2018-Jun-13 20:00N 37°39' W 122°39'3 7.0
2018-Jun-13 19:30N 37°35' W 122°39'4 8.3
2018-Jun-13 19:00N 37°31' W 122°39'4 8.1
2018-Jun-13 18:30N 37°27' W 122°39'4 8.1
2018-Jun-13 18:00N 37°23' W 122°39'4 7.8
2018-Jun-13 17:30N 37°19' W 122°39'5 9.0
2018-Jun-13 17:00N 37°15' W 122°39'611.5
2018-Jun-13 16:30N 37°09' W 122°38'611.5
2018-Jun-13 16:00N 37°03' W 122°36'611.6
2018-Jun-13 15:30N 36°58' W 122°35'612.1
2018-Jun-13 14:58N 36°52' W 122°32'611.8
2018-Jun-13 14:29N 36°46' W 122°29'8211.5
2018-Jun-13 07:21N 35°34' W 121°42'411.5
2018-Jun-13 06:59N 35°30' W 121°40'612.3
2018-Jun-13 06:29N 35°25' W 121°36'612.6
2018-Jun-13 05:58N 35°20' W 121°32'612.6
2018-Jun-13 05:30N 35°15' W 121°28'612.5
2018-Jun-13 05:00N 35°09' W 121°24'612.4
2018-Jun-13 04:30N 35°04' W 121°20'612.6
2018-Jun-13 04:00N 34°59' W 121°16'1212.7
2018-Jun-13 03:06N 34°49' W 121°09'212.2
2018-Jun-13 02:58N 34°47' W 121°08'612.4
2018-Jun-13 02:27N 34°42' W 121°03'512.1
2018-Jun-13 02:00N 34°37' W 121°00'611.8
2018-Jun-13 01:28N 34°32' W 120°56'511.9
2018-Jun-13 01:00N 34°27' W 120°53'611.1
2018-Jun-13 00:30N 34°25' W 120°46'611.1
2018-Jun-12 23:58N 34°24' W 120°39'510.2
2018-Jun-12 23:30N 34°22' W 120°34'510.4
2018-Jun-12 23:00N 34°21' W 120°28'511.0
2018-Jun-12 22:30N 34°20' W 120°21'611.2
2018-Jun-12 22:00N 34°18' W 120°15'611.2
2018-Jun-12 21:30N 34°17' W 120°08'611.3
2018-Jun-12 20:59N 34°15' W 120°01'511.3
2018-Jun-12 20:30N 34°14' W 119°55'510.5
2018-Jun-12 20:01N 34°12' W 119°49'510.4
2018-Jun-12 19:30N 34°11' W 119°43'611.3
2018-Jun-12 19:00N 34°09' W 119°36'611.8
2018-Jun-12 18:30N 34°08' W 119°29'612.0
2018-Jun-12 18:00N 34°06' W 119°22'612.2
2018-Jun-12 17:29N 34°04' W 119°15'612.1
2018-Jun-12 17:00N 34°01' W 119°09'611.9
2018-Jun-12 16:30N 33°59' W 119°03'611.9
2018-Jun-12 16:00N 33°56' W 118°56'611.8
2018-Jun-12 15:31N 33°53' W 118°50'611.8
2018-Jun-12 14:59N 33°50' W 118°44'611.8
2018-Jun-12 14:31N 33°47' W 118°38'611.8
2018-Jun-12 14:01N 33°44' W 118°32'611.7
2018-Jun-12 13:30N 33°41' W 118°26'611.4
2018-Jun-12 13:00N 33°39' W 118°19'5 9.7
2018-Jun-12 12:30N 33°41' W 118°15'3 5.7
2018-Jun-12 12:00N 33°44' W 118°17'1 1.7
2018-Jun-12 11:30N 33°45' W 118°16'0 0.0
2018-Jun-12 11:00N 33°45' W 118°16'0 0.0
2018-Jun-12 10:30N 33°45' W 118°16'0 0.0
2018-Jun-12 10:00N 33°45' W 118°16'0 0.0
2018-Jun-12 09:29N 33°45' W 118°16'0 0.0
2018-Jun-12 08:57N 33°45' W 118°16'0 0.0
2018-Jun-12 08:30N 33°45' W 118°16'0 0.0
2018-Jun-12 07:59N 33°45' W 118°16'0 0.0
2018-Jun-12 07:29N 33°45' W 118°16'0 0.0
2018-Jun-12 07:00N 33°45' W 118°16'0 0.0
2018-Jun-12 06:30N 33°45' W 118°16'0 0.0
2018-Jun-12 06:00N 33°45' W 118°16'0 0.0
2018-Jun-12 05:30N 33°45' W 118°16'0 0.0
2018-Jun-12 04:59N 33°45' W 118°16'0 0.0
2018-Jun-12 04:30N 33°45' W 118°16'0 0.0
2018-Jun-12 04:00N 33°45' W 118°16'0 0.0
2018-Jun-12 03:30N 33°45' W 118°16'0 0.0
2018-Jun-12 03:00N 33°45' W 118°16'0 0.0
2018-Jun-12 02:30N 33°45' W 118°16'0 0.0
2018-Jun-12 02:00N 33°45' W 118°16'0 0.0
2018-Jun-12 01:30N 33°45' W 118°16'0 0.0
2018-Jun-12 01:00N 33°45' W 118°16'0 0.0
2018-Jun-12 00:29N 33°45' W 118°16'0 0.0
2018-Jun-11 23:59N 33°45' W 118°16'0 0.0
2018-Jun-11 23:30N 33°45' W 118°16'0 0.0
2018-Jun-11 23:00N 33°45' W 118°16'0 0.0
2018-Jun-11 22:30N 33°45' W 118°16'0 0.0
2018-Jun-11 22:00N 33°45' W 118°16'0 0.0
2018-Jun-11 21:30N 33°45' W 118°16'0 0.0
2018-Jun-11 21:00N 33°45' W 118°16'0 0.0
2018-Jun-11 20:30N 33°45' W 118°16'0 0.1
2018-Jun-11 20:00N 33°45' W 118°16'0 0.1
2018-Jun-11 19:27N 33°45' W 118°16'0 0.0
2018-Jun-11 19:00N 33°45' W 118°16'0 0.0
2018-Jun-11 18:30N 33°45' W 118°16'0 0.0
2018-Jun-11 18:00N 33°45' W 118°16'0 0.0
2018-Jun-11 17:30N 33°45' W 118°16'0 0.0
2018-Jun-11 16:57N 33°45' W 118°16'0 0.0
2018-Jun-11 16:26N 33°45' W 118°16'0 0.0
2018-Jun-11 16:00N 33°45' W 118°16'0 0.0
2018-Jun-11 15:30N 33°45' W 118°16'0 0.0
2018-Jun-11 15:00N 33°45' W 118°16'0 0.0
2018-Jun-11 14:29N 33°45' W 118°16'0 0.0
2018-Jun-11 13:57N 33°45' W 118°16'0 0.1
2018-Jun-11 13:30N 33°45' W 118°16'0 0.0
2018-Jun-11 12:59N 33°45' W 118°16'0 0.0
2018-Jun-11 12:30N 33°45' W 118°16'0 0.0
2018-Jun-11 12:00N 33°45' W 118°16'0 0.0
2018-Jun-11 11:30N 33°45' W 118°16'0 0.1
2018-Jun-11 10:59N 33°45' W 118°16'0 0.1
2018-Jun-11 10:30N 33°45' W 118°16'0 0.0
2018-Jun-11 10:00N 33°45' W 118°16'0 0.0
2018-Jun-11 09:29N 33°45' W 118°16'0 0.1
2018-Jun-11 09:00N 33°45' W 118°16'0 0.1
2018-Jun-11 08:27N 33°45' W 118°16'0 0.0
2018-Jun-11 08:00N 33°45' W 118°16'0 0.0
2018-Jun-11 07:30N 33°45' W 118°16'0 0.0
2018-Jun-11 07:00N 33°45' W 118°16'0 0.0
2018-Jun-11 06:30N 33°45' W 118°16'0 0.1
2018-Jun-11 06:00N 33°45' W 118°16'0 0.1
2018-Jun-11 05:30N 33°45' W 118°16'0 0.0
2018-Jun-11 05:00N 33°45' W 118°16'0 0.1
2018-Jun-11 04:30N 33°45' W 118°16'0 0.1
2018-Jun-11 04:00N 33°45' W 118°16'0 0.0
2018-Jun-11 03:30N 33°45' W 118°16'0 0.1
2018-Jun-11 03:00N 33°45' W 118°16'0 0.1
2018-Jun-11 02:30N 33°45' W 118°16'0 0.0
2018-Jun-11 02:00N 33°45' W 118°16'0 0.0
2018-Jun-11 01:30N 33°45' W 118°16'0 0.0
2018-Jun-11 01:00N 33°45' W 118°16'0 0.0
2018-Jun-11 00:30N 33°45' W 118°16'0 0.0
2018-Jun-11 00:00N 33°45' W 118°16'0 0.0
2018-Jun-10 23:30N 33°45' W 118°16'0 0.0
2018-Jun-10 23:00N 33°45' W 118°16'0 0.0
2018-Jun-10 22:30N 33°45' W 118°16'0 0.0
2018-Jun-10 22:00N 33°45' W 118°16'0 0.1
2018-Jun-10 21:27N 33°45' W 118°16'0 0.1
2018-Jun-10 21:00N 33°45' W 118°16'0 0.0
2018-Jun-10 20:30N 33°45' W 118°16'0 0.0
2018-Jun-10 20:00N 33°45' W 118°16'0 0.0
2018-Jun-10 19:30N 33°45' W 118°16'0 0.0
2018-Jun-10 19:00N 33°45' W 118°16'0 0.0
2018-Jun-10 18:30N 33°45' W 118°16'0 0.0
2018-Jun-10 18:00N 33°45' W 118°16'0 0.0
2018-Jun-10 17:30N 33°45' W 118°16'0 0.0
2018-Jun-10 17:00N 33°45' W 118°16'0 0.0
2018-Jun-10 16:30N 33°45' W 118°16'0 0.0
2018-Jun-10 16:00N 33°45' W 118°16'0 0.0
2018-Jun-10 15:29N 33°45' W 118°16'0 0.0
2018-Jun-10 15:00N 33°45' W 118°16'0 0.1
2018-Jun-10 14:30N 33°45' W 118°16'0 0.1
2018-Jun-10 13:30N 33°45' W 118°16'0 0.0
2018-Jun-10 12:57N 33°45' W 118°16'0 0.0
2018-Jun-10 12:30N 33°45' W 118°16'0 0.4
2018-Jun-10 12:00N 33°45' W 118°16'3 6.8
2018-Jun-10 11:30N 33°42' W 118°15'4 8.4
2018-Jun-10 11:00N 33°37' W 118°15'4 8.2
2018-Jun-10 10:30N 33°36' W 118°20'611.4
2018-Jun-10 10:00N 33°36' W 118°27'711.7
2018-Jun-10 09:24N 33°37' W 118°35'511.6
2018-Jun-10 09:01N 33°37' W 118°41'611.4
2018-Jun-10 08:30N 33°37' W 118°48'611.8
2018-Jun-10 08:00N 33°37' W 118°55'611.7
2018-Jun-10 07:28N 33°37' W 119°02'612.0
2018-Jun-10 07:00N 33°37' W 119°09'612.8
2018-Jun-10 06:30N 33°37' W 119°17'612.5
2018-Jun-10 06:00N 33°37' W 119°24'612.5
2018-Jun-10 05:30N 33°37' W 119°32'612.6
2018-Jun-10 05:01N 33°37' W 119°39'714.1
2018-Jun-10 04:30N 33°38' W 119°48'815.9
2018-Jun-10 03:59N 33°38' W 119°58'815.7
2018-Jun-10 03:30N 33°38' W 120°07'815.6
2018-Jun-10 03:00N 33°38' W 120°16'815.7
2018-Jun-10 02:30N 33°38' W 120°25'815.6
2018-Jun-10 02:00N 33°38' W 120°35'815.4
2018-Jun-10 01:29N 33°38' W 120°45'715.4
2018-Jun-10 01:00N 33°38' W 120°53'815.6
2018-Jun-10 00:29N 33°38' W 121°03'816.1
2018-Jun-10 00:00N 33°38' W 121°13'816.5
2018-Jun-09 23:30N 33°38' W 121°22'815.2
2018-Jun-09 22:59N 33°38' W 121°32'713.9
2018-Jun-09 22:29N 33°38' W 121°40'914.0
2018-Jun-09 21:50N 33°38' W 121°51'514.0
2018-Jun-09 21:30N 33°38' W 121°57'714.0
2018-Jun-09 21:00N 33°38' W 122°05'3514.0
2018-Jun-09 18:31N 33°39' W 122°47'113.8
2018-Jun-09 18:27N 33°39' W 122°48'  
Track history (hours):
 
Tides and Currents Weather Stations Pressure Air Temp Water Temp Dewpoint Dewpoint Depression Visibility Wind Speed Wind Dir Waves Ship Positions

Hatsu Envoy

Last reported at 2018-Jun-15 09:57 UTC. Time now 2018-Jun-19 08:27 UTC.
Position N 38°11' W 124°05'.

Type: Ship (hazmat cat D). MMSI: 235414000.

Date/timePositionNaut miles runAvg speedWind from/ knotsBaromVisibWave heightAir tempDewpointWater temp
2018-Jun-15 09:57N 38°11' W 124°05'7 9.8
2018-Jun-15 09:16N 38°11' W 123°57'3 9.4
2018-Jun-15 09:00N 38°10' W 123°54'5 9.5
2018-Jun-15 08:30N 38°10' W 123°48'5 9.5
2018-Jun-15 08:00N 38°10' W 123°42'5 9.5
2018-Jun-15 07:30N 38°10' W 123°36'5 9.6
2018-Jun-15 07:00N 38°10' W 123°30'510.5
2018-Jun-15 06:30N 38°10' W 123°23'4 8.7
2018-Jun-15 06:00N 38°07' W 123°19'4 8.3
2018-Jun-15 05:30N 38°04' W 123°15'4 9.0
2018-Jun-15 05:00N 38°01' W 123°11'5 9.7
2018-Jun-15 04:30N 37°58' W 123°06'5 9.7
2018-Jun-15 04:00N 37°55' W 123°01'5 9.6
2018-Jun-15 03:30N 37°53' W 122°56'5 9.5
2018-Jun-15 03:00N 37°51' W 122°51'5 9.5
2018-Jun-15 02:30N 37°48' W 122°45'4 8.7
2018-Jun-15 02:01N 37°47' W 122°40'713.9
2018-Jun-15 01:30N 37°48' W 122°32'612.4
2018-Jun-15 01:01N 37°50' W 122°24'3 6.4
2018-Jun-15 00:29N 37°49' W 122°20'0 0.0
2018-Jun-14 23:57N 37°49' W 122°20'0 0.0
2018-Jun-14 23:26N 37°49' W 122°20'0 0.0
2018-Jun-14 22:59N 37°49' W 122°20'0 0.0
2018-Jun-14 22:29N 37°49' W 122°20'0 0.0
2018-Jun-14 21:56N 37°49' W 122°20'0 0.0
2018-Jun-14 21:26N 37°49' W 122°20'0 0.0
2018-Jun-14 20:57N 37°49' W 122°20'0 0.0
2018-Jun-14 20:29N 37°49' W 122°20'0 0.0
2018-Jun-14 19:59N 37°49' W 122°20'0 0.0
2018-Jun-14 19:29N 37°49' W 122°20'0 0.1
2018-Jun-14 18:56N 37°48' W 122°20'0 0.1
2018-Jun-14 18:29N 37°48' W 122°20'0 0.0
2018-Jun-14 17:59N 37°49' W 122°20'0 0.0
2018-Jun-14 17:26N 37°49' W 122°20'0 0.0
2018-Jun-14 16:56N 37°49' W 122°20'0 0.0
2018-Jun-14 16:30N 37°49' W 122°20'0 0.0
2018-Jun-14 16:00N 37°49' W 122°20'0 0.0
2018-Jun-14 15:26N 37°49' W 122°20'0 0.0
2018-Jun-14 14:59N 37°48' W 122°20'0 0.0
2018-Jun-14 14:29N 37°49' W 122°20'0 0.0
2018-Jun-14 13:59N 37°49' W 122°20'0 0.0
2018-Jun-14 13:29N 37°49' W 122°20'0 0.0
2018-Jun-14 12:59N 37°49' W 122°20'0 0.0
2018-Jun-14 12:29N 37°49' W 122°20'0 0.0
2018-Jun-14 11:59N 37°49' W 122°20'0 0.0
2018-Jun-14 11:29N 37°49' W 122°20'0 0.0
2018-Jun-14 10:59N 37°49' W 122°20'0 0.0
2018-Jun-14 10:29N 37°49' W 122°20'0 0.0
2018-Jun-14 09:59N 37°49' W 122°20'0 0.0
2018-Jun-14 09:29N 37°49' W 122°20'0 0.0
2018-Jun-14 08:59N 37°49' W 122°20'0 0.0
2018-Jun-14 08:29N 37°49' W 122°20'0 0.0
2018-Jun-14 07:59N 37°49' W 122°20'0 0.0
2018-Jun-14 07:29N 37°49' W 122°20'0 0.0
2018-Jun-14 06:59N 37°49' W 122°20'0 0.1
2018-Jun-14 06:29N 37°48' W 122°20'0 0.1
2018-Jun-14 06:00N 37°49' W 122°20'0 0.0
2018-Jun-14 05:29N 37°49' W 122°20'0 0.0
2018-Jun-14 04:59N 37°48' W 122°20'0 0.0
2018-Jun-14 04:29N 37°49' W 122°20'0 0.0
2018-Jun-14 03:59N 37°49' W 122°20'0 0.0
2018-Jun-14 03:29N 37°49' W 122°20'0 0.0
2018-Jun-14 02:59N 37°49' W 122°20'0 0.0
2018-Jun-14 02:29N 37°49' W 122°20'0 0.0
2018-Jun-14 01:59N 37°49' W 122°20'0 0.0
2018-Jun-14 01:29N 37°49' W 122°20'0 0.0
2018-Jun-14 00:56N 37°49' W 122°20'0 0.0
2018-Jun-14 00:29N 37°49' W 122°20'0 0.0
2018-Jun-13 23:57N 37°49' W 122°20'0 0.0
2018-Jun-13 23:26N 37°49' W 122°20'1 1.3
2018-Jun-13 23:00N 37°49' W 122°20'0 0.5
2018-Jun-13 22:31N 37°49' W 122°19'3 5.4
2018-Jun-13 22:00N 37°48' W 122°23'612.2
2018-Jun-13 21:30N 37°48' W 122°30'714.1
2018-Jun-13 21:00N 37°46' W 122°39'4 8.5
2018-Jun-13 20:30N 37°41' W 122°40'3 5.3
2018-Jun-13 20:00N 37°39' W 122°39'3 7.0
2018-Jun-13 19:30N 37°35' W 122°39'4 8.3
2018-Jun-13 19:00N 37°31' W 122°39'4 8.1
2018-Jun-13 18:30N 37°27' W 122°39'4 8.1
2018-Jun-13 18:00N 37°23' W 122°39'4 7.8
2018-Jun-13 17:30N 37°19' W 122°39'5 9.0
2018-Jun-13 17:00N 37°15' W 122°39'611.5
2018-Jun-13 16:30N 37°09' W 122°38'611.5
2018-Jun-13 16:00N 37°03' W 122°36'611.6
2018-Jun-13 15:30N 36°58' W 122°35'612.1
2018-Jun-13 14:58N 36°52' W 122°32'611.8
2018-Jun-13 14:29N 36°46' W 122°29'8211.5
2018-Jun-13 07:21N 35°34' W 121°42'411.5
2018-Jun-13 06:59N 35°30' W 121°40'612.3
2018-Jun-13 06:29N 35°25' W 121°36'612.6
2018-Jun-13 05:58N 35°20' W 121°32'612.6
2018-Jun-13 05:30N 35°15' W 121°28'612.5
2018-Jun-13 05:00N 35°09' W 121°24'612.4
2018-Jun-13 04:30N 35°04' W 121°20'612.6
2018-Jun-13 04:00N 34°59' W 121°16'1212.7
2018-Jun-13 03:06N 34°49' W 121°09'212.2
2018-Jun-13 02:58N 34°47' W 121°08'612.4
2018-Jun-13 02:27N 34°42' W 121°03'512.1
2018-Jun-13 02:00N 34°37' W 121°00'611.8
2018-Jun-13 01:28N 34°32' W 120°56'511.9
2018-Jun-13 01:00N 34°27' W 120°53'611.1
2018-Jun-13 00:30N 34°25' W 120°46'611.1
2018-Jun-12 23:58N 34°24' W 120°39'510.2
2018-Jun-12 23:30N 34°22' W 120°34'510.4
2018-Jun-12 23:00N 34°21' W 120°28'511.0
2018-Jun-12 22:30N 34°20' W 120°21'611.2
2018-Jun-12 22:00N 34°18' W 120°15'611.2
2018-Jun-12 21:30N 34°17' W 120°08'611.3
2018-Jun-12 20:59N 34°15' W 120°01'511.3
2018-Jun-12 20:30N 34°14' W 119°55'510.5
2018-Jun-12 20:01N 34°12' W 119°49'510.4
2018-Jun-12 19:30N 34°11' W 119°43'611.3
2018-Jun-12 19:00N 34°09' W 119°36'611.8
2018-Jun-12 18:30N 34°08' W 119°29'612.0
2018-Jun-12 18:00N 34°06' W 119°22'612.2
2018-Jun-12 17:29N 34°04' W 119°15'612.1
2018-Jun-12 17:00N 34°01' W 119°09'611.9
2018-Jun-12 16:30N 33°59' W 119°03'611.9
2018-Jun-12 16:00N 33°56' W 118°56'611.8
2018-Jun-12 15:31N 33°53' W 118°50'611.8
2018-Jun-12 14:59N 33°50' W 118°44'611.8
2018-Jun-12 14:31N 33°47' W 118°38'611.8
2018-Jun-12 14:01N 33°44' W 118°32'611.7
2018-Jun-12 13:30N 33°41' W 118°26'611.4
2018-Jun-12 13:00N 33°39' W 118°19'5 9.7
2018-Jun-12 12:30N 33°41' W 118°15'3 5.7
2018-Jun-12 12:00N 33°44' W 118°17'1 1.7
2018-Jun-12 11:30N 33°45' W 118°16'0 0.0
2018-Jun-12 11:00N 33°45' W 118°16'0 0.0
2018-Jun-12 10:30N 33°45' W 118°16'0 0.0
2018-Jun-12 10:00N 33°45' W 118°16'0 0.0
2018-Jun-12 09:29N 33°45' W 118°16'0 0.0
2018-Jun-12 08:57N 33°45' W 118°16'0 0.0
2018-Jun-12 08:30N 33°45' W 118°16'0 0.0
2018-Jun-12 07:59N 33°45' W 118°16'0 0.0
2018-Jun-12 07:29N 33°45' W 118°16'0 0.0
2018-Jun-12 07:00N 33°45' W 118°16'0 0.0
2018-Jun-12 06:30N 33°45' W 118°16'0 0.0
2018-Jun-12 06:00N 33°45' W 118°16'0 0.0
2018-Jun-12 05:30N 33°45' W 118°16'0 0.0
2018-Jun-12 04:59N 33°45' W 118°16'0 0.0
2018-Jun-12 04:30N 33°45' W 118°16'0 0.0
2018-Jun-12 04:00N 33°45' W 118°16'0 0.0
2018-Jun-12 03:30N 33°45' W 118°16'0 0.0
2018-Jun-12 03:00N 33°45' W 118°16'0 0.0
2018-Jun-12 02:30N 33°45' W 118°16'0 0.0
2018-Jun-12 02:00N 33°45' W 118°16'0 0.0
2018-Jun-12 01:30N 33°45' W 118°16'0 0.0
2018-Jun-12 01:00N 33°45' W 118°16'0 0.0
2018-Jun-12 00:29N 33°45' W 118°16'0 0.0
2018-Jun-11 23:59N 33°45' W 118°16'0 0.0
2018-Jun-11 23:30N 33°45' W 118°16'0 0.0
2018-Jun-11 23:00N 33°45' W 118°16'0 0.0
2018-Jun-11 22:30N 33°45' W 118°16'0 0.0
2018-Jun-11 22:00N 33°45' W 118°16'0 0.0
2018-Jun-11 21:30N 33°45' W 118°16'0 0.0
2018-Jun-11 21:00N 33°45' W 118°16'0 0.0
2018-Jun-11 20:30N 33°45' W 118°16'0 0.1
2018-Jun-11 20:00N 33°45' W 118°16'0 0.1
2018-Jun-11 19:27N 33°45' W 118°16'0 0.0
2018-Jun-11 19:00N 33°45' W 118°16'0 0.0
2018-Jun-11 18:30N 33°45' W 118°16'0 0.0
2018-Jun-11 18:00N 33°45' W 118°16'0 0.0
2018-Jun-11 17:30N 33°45' W 118°16'0 0.0
2018-Jun-11 16:57N 33°45' W 118°16'0 0.0
2018-Jun-11 16:26N 33°45' W 118°16'0 0.0
2018-Jun-11 16:00N 33°45' W 118°16'0 0.0
2018-Jun-11 15:30N 33°45' W 118°16'0 0.0
2018-Jun-11 15:00N 33°45' W 118°16'0 0.0
2018-Jun-11 14:29N 33°45' W 118°16'0 0.0
2018-Jun-11 13:57N 33°45' W 118°16'0 0.1
2018-Jun-11 13:30N 33°45' W 118°16'0 0.0
2018-Jun-11 12:59N 33°45' W 118°16'0 0.0
2018-Jun-11 12:30N 33°45' W 118°16'0 0.0
2018-Jun-11 12:00N 33°45' W 118°16'0 0.0
2018-Jun-11 11:30N 33°45' W 118°16'0 0.1
2018-Jun-11 10:59N 33°45' W 118°16'0 0.1
2018-Jun-11 10:30N 33°45' W 118°16'0 0.0
2018-Jun-11 10:00N 33°45' W 118°16'0 0.0
2018-Jun-11 09:29N 33°45' W 118°16'0 0.1
2018-Jun-11 09:00N 33°45' W 118°16'0 0.1
2018-Jun-11 08:27N 33°45' W 118°16'0 0.0
2018-Jun-11 08:00N 33°45' W 118°16'0 0.0
2018-Jun-11 07:30N 33°45' W 118°16'0 0.0
2018-Jun-11 07:00N 33°45' W 118°16'0 0.0
2018-Jun-11 06:30N 33°45' W 118°16'0 0.1
2018-Jun-11 06:00N 33°45' W 118°16'0 0.1
2018-Jun-11 05:30N 33°45' W 118°16'0 0.0
2018-Jun-11 05:00N 33°45' W 118°16'0 0.1
2018-Jun-11 04:30N 33°45' W 118°16'0 0.1
2018-Jun-11 04:00N 33°45' W 118°16'0 0.0
2018-Jun-11 03:30N 33°45' W 118°16'0 0.1
2018-Jun-11 03:00N 33°45' W 118°16'0 0.1
2018-Jun-11 02:30N 33°45' W 118°16'0 0.0
2018-Jun-11 02:00N 33°45' W 118°16'0 0.0
2018-Jun-11 01:30N 33°45' W 118°16'0 0.0
2018-Jun-11 01:00N 33°45' W 118°16'0 0.0
2018-Jun-11 00:30N 33°45' W 118°16'0 0.0
2018-Jun-11 00:00N 33°45' W 118°16'0 0.0
2018-Jun-10 23:30N 33°45' W 118°16'0 0.0
2018-Jun-10 23:00N 33°45' W 118°16'0 0.0
2018-Jun-10 22:30N 33°45' W 118°16'0 0.0
2018-Jun-10 22:00N 33°45' W 118°16'0 0.1
2018-Jun-10 21:27N 33°45' W 118°16'0 0.1
2018-Jun-10 21:00N 33°45' W 118°16'0 0.0
2018-Jun-10 20:30N 33°45' W 118°16'0 0.0
2018-Jun-10 20:00N 33°45' W 118°16'0 0.0
2018-Jun-10 19:30N 33°45' W 118°16'0 0.0
2018-Jun-10 19:00N 33°45' W 118°16'0 0.0
2018-Jun-10 18:30N 33°45' W 118°16'0 0.0
2018-Jun-10 18:00N 33°45' W 118°16'0 0.0
2018-Jun-10 17:30N 33°45' W 118°16'0 0.0
2018-Jun-10 17:00N 33°45' W 118°16'0 0.0
2018-Jun-10 16:30N 33°45' W 118°16'0 0.0
2018-Jun-10 16:00N 33°45' W 118°16'0 0.0
2018-Jun-10 15:29N 33°45' W 118°16'0 0.0
2018-Jun-10 15:00N 33°45' W 118°16'0 0.1
2018-Jun-10 14:30N 33°45' W 118°16'0 0.1
2018-Jun-10 13:30N 33°45' W 118°16'0 0.0
2018-Jun-10 12:57N 33°45' W 118°16'0 0.0
2018-Jun-10 12:30N 33°45' W 118°16'0 0.4
2018-Jun-10 12:00N 33°45' W 118°16'3 6.8
2018-Jun-10 11:30N 33°42' W 118°15'4 8.4
2018-Jun-10 11:00N 33°37' W 118°15'4 8.2
2018-Jun-10 10:30N 33°36' W 118°20'611.4
2018-Jun-10 10:00N 33°36' W 118°27'711.7
2018-Jun-10 09:24N 33°37' W 118°35'511.6
2018-Jun-10 09:01N 33°37' W 118°41'611.4
2018-Jun-10 08:30N 33°37' W 118°48'611.8
2018-Jun-10 08:00N 33°37' W 118°55'611.7
2018-Jun-10 07:28N 33°37' W 119°02'612.0
2018-Jun-10 07:00N 33°37' W 119°09'612.8
2018-Jun-10 06:30N 33°37' W 119°17'612.5
2018-Jun-10 06:00N 33°37' W 119°24'612.5
2018-Jun-10 05:30N 33°37' W 119°32'612.6
2018-Jun-10 05:01N 33°37' W 119°39'714.1
2018-Jun-10 04:30N 33°38' W 119°48'815.9
2018-Jun-10 03:59N 33°38' W 119°58'815.7
2018-Jun-10 03:30N 33°38' W 120°07'815.6
2018-Jun-10 03:00N 33°38' W 120°16'815.7
2018-Jun-10 02:30N 33°38' W 120°25'815.6
2018-Jun-10 02:00N 33°38' W 120°35'815.4
2018-Jun-10 01:29N 33°38' W 120°45'715.4
2018-Jun-10 01:00N 33°38' W 120°53'815.6
2018-Jun-10 00:29N 33°38' W 121°03'816.1
2018-Jun-10 00:00N 33°38' W 121°13'816.5
2018-Jun-09 23:30N 33°38' W 121°22'815.2
2018-Jun-09 22:59N 33°38' W 121°32'713.9
2018-Jun-09 22:29N 33°38' W 121°40'914.0
2018-Jun-09 21:50N 33°38' W 121°51'514.0
2018-Jun-09 21:30N 33°38' W 121°57'714.0
2018-Jun-09 21:00N 33°38' W 122°05'3514.0
2018-Jun-09 18:31N 33°39' W 122°47'113.8
2018-Jun-09 18:27N 33°39' W 122°48'  

Dump ship's entire track history